sensor_id;sensor_type;location;lat;lon;timestamp;temperature;humidity
40636;DHT22;26642;55.766;37.828;2023-08-06T00:00:24;27.70;68.20
40636;DHT22;26642;55.766;37.828;2023-08-06T00:02:50;27.70;68.20
40636;DHT22;26642;55.766;37.828;2023-08-06T00:05:16;27.70;68.20
40636;DHT22;26642;55.766;37.828;2023-08-06T00:07:47;27.70;68.20
40636;DHT22;26642;55.766;37.828;2023-08-06T00:10:14;27.70;68.20
40636;DHT22;26642;55.766;37.828;2023-08-06T00:12:40;27.70;68.30
40636;DHT22;26642;55.766;37.828;2023-08-06T00:15:06;27.60;68.30
40636;DHT22;26642;55.766;37.828;2023-08-06T00:17:34;27.70;68.00
40636;DHT22;26642;55.766;37.828;2023-08-06T00:20:01;27.60;68.30
40636;DHT22;26642;55.766;37.828;2023-08-06T00:22:37;27.60;67.90
40636;DHT22;26642;55.766;37.828;2023-08-06T00:25:04;27.60;67.80
40636;DHT22;26642;55.766;37.828;2023-08-06T00:27:31;27.60;67.80
40636;DHT22;26642;55.766;37.828;2023-08-06T00:29:58;27.60;67.90
40636;DHT22;26642;55.766;37.828;2023-08-06T00:32:24;27.60;68.30
40636;DHT22;26642;55.766;37.828;2023-08-06T00:34:50;27.60;68.30
40636;DHT22;26642;55.766;37.828;2023-08-06T00:37:19;27.60;68.40
40636;DHT22;26642;55.766;37.828;2023-08-06T00:39:45;27.70;68.50
40636;DHT22;26642;55.766;37.828;2023-08-06T00:42:12;27.60;68.30
40636;DHT22;26642;55.766;37.828;2023-08-06T00:44:38;27.60;68.40
40636;DHT22;26642;55.766;37.828;2023-08-06T00:47:06;27.60;68.30
40636;DHT22;26642;55.766;37.828;2023-08-06T00:49:34;27.60;68.50
40636;DHT22;26642;55.766;37.828;2023-08-06T00:52:00;27.60;68.20
40636;DHT22;26642;55.766;37.828;2023-08-06T00:54:27;27.60;68.40
40636;DHT22;26642;55.766;37.828;2023-08-06T00:56:53;27.60;68.40
40636;DHT22;26642;55.766;37.828;2023-08-06T00:59:19;27.60;68.50
40636;DHT22;26642;55.766;37.828;2023-08-06T01:01:45;27.60;68.50
40636;DHT22;26642;55.766;37.828;2023-08-06T01:04:12;27.60;68.50
40636;DHT22;26642;55.766;37.828;2023-08-06T01:07:18;27.50;68.60
40636;DHT22;26642;55.766;37.828;2023-08-06T01:12:45;27.60;68.70
40636;DHT22;26642;55.766;37.828;2023-08-06T01:15:18;27.50;68.80
40636;DHT22;26642;55.766;37.828;2023-08-06T01:17:45;27.60;68.80
40636;DHT22;26642;55.766;37.828;2023-08-06T01:20:12;27.60;68.80
40636;DHT22;26642;55.766;37.828;2023-08-06T01:22:38;27.50;68.80
40636;DHT22;26642;55.766;37.828;2023-08-06T01:25:04;27.50;68.80
40636;DHT22;26642;55.766;37.828;2023-08-06T01:27:49;27.50;68.70
40636;DHT22;26642;55.766;37.828;2023-08-06T01:30:18;27.50;68.70
40636;DHT22;26642;55.766;37.828;2023-08-06T01:32:48;27.50;68.90
40636;DHT22;26642;55.766;37.828;2023-08-06T01:35:16;27.50;68.90
40636;DHT22;26642;55.766;37.828;2023-08-06T01:37:43;27.50;69.00
40636;DHT22;26642;55.766;37.828;2023-08-06T01:40:13;27.50;68.80
40636;DHT22;26642;55.766;37.828;2023-08-06T01:42:39;27.40;68.60
40636;DHT22;26642;55.766;37.828;2023-08-06T01:45:08;27.50;68.70
40636;DHT22;26642;55.766;37.828;2023-08-06T01:47:34;27.40;68.70
40636;DHT22;26642;55.766;37.828;2023-08-06T01:50:00;27.40;69.30
40636;DHT22;26642;55.766;37.828;2023-08-06T01:52:27;27.50;69.00
40636;DHT22;26642;55.766;37.828;2023-08-06T01:54:53;27.40;69.20
40636;DHT22;26642;55.766;37.828;2023-08-06T01:57:19;27.50;69.00
40636;DHT22;26642;55.766;37.828;2023-08-06T01:59:45;27.40;69.00
40636;DHT22;26642;55.766;37.828;2023-08-06T02:02:12;27.40;69.20
40636;DHT22;26642;55.766;37.828;2023-08-06T02:04:38;27.50;69.40
40636;DHT22;26642;55.766;37.828;2023-08-06T02:07:04;27.50;69.10
40636;DHT22;26642;55.766;37.828;2023-08-06T02:09:31;27.40;69.40
40636;DHT22;26642;55.766;37.828;2023-08-06T02:11:57;27.40;69.30
40636;DHT22;26642;55.766;37.828;2023-08-06T02:14:23;27.40;70.00
40636;DHT22;26642;55.766;37.828;2023-08-06T02:16:49;27.40;69.40
40636;DHT22;26642;55.766;37.828;2023-08-06T02:19:16;27.40;69.20
40636;DHT22;26642;55.766;37.828;2023-08-06T02:21:41;27.40;69.20
40636;DHT22;26642;55.766;37.828;2023-08-06T02:24:07;27.40;69.30
40636;DHT22;26642;55.766;37.828;2023-08-06T02:26:33;27.50;69.40
40636;DHT22;26642;55.766;37.828;2023-08-06T02:28:59;27.50;69.10
40636;DHT22;26642;55.766;37.828;2023-08-06T02:31:25;27.50;69.70
40636;DHT22;26642;55.766;37.828;2023-08-06T02:33:51;27.50;69.50
40636;DHT22;26642;55.766;37.828;2023-08-06T02:36:19;27.50;69.50
40636;DHT22;26642;55.766;37.828;2023-08-06T02:38:45;27.50;69.50
40636;DHT22;26642;55.766;37.828;2023-08-06T02:41:11;27.50;69.00
40636;DHT22;26642;55.766;37.828;2023-08-06T02:43:37;27.50;68.90
40636;DHT22;26642;55.766;37.828;2023-08-06T02:46:03;27.60;68.90
40636;DHT22;26642;55.766;37.828;2023-08-06T02:48:29;27.60;68.80
40636;DHT22;26642;55.766;37.828;2023-08-06T02:50:58;27.60;68.70
40636;DHT22;26642;55.766;37.828;2023-08-06T02:53:29;27.60;68.70
40636;DHT22;26642;55.766;37.828;2023-08-06T02:55:58;27.60;68.80
40636;DHT22;26642;55.766;37.828;2023-08-06T02:58:32;27.60;68.70
40636;DHT22;26642;55.766;37.828;2023-08-06T03:01:18;27.60;68.80
40636;DHT22;26642;55.766;37.828;2023-08-06T03:03:51;27.60;69.20
40636;DHT22;26642;55.766;37.828;2023-08-06T03:06:23;27.60;68.90
40636;DHT22;26642;55.766;37.828;2023-08-06T03:08:52;27.50;69.00
40636;DHT22;26642;55.766;37.828;2023-08-06T03:11:19;27.50;69.10
40636;DHT22;26642;55.766;37.828;2023-08-06T03:13:50;27.50;69.20
40636;DHT22;26642;55.766;37.828;2023-08-06T03:16:16;27.50;69.30
40636;DHT22;26642;55.766;37.828;2023-08-06T03:18:43;27.50;69.10
40636;DHT22;26642;55.766;37.828;2023-08-06T03:21:10;27.50;69.30
40636;DHT22;26642;55.766;37.828;2023-08-06T03:23:36;27.50;69.20
40636;DHT22;26642;55.766;37.828;2023-08-06T03:26:02;27.50;69.90
40636;DHT22;26642;55.766;37.828;2023-08-06T03:28:30;27.50;69.10
40636;DHT22;26642;55.766;37.828;2023-08-06T03:31:03;27.50;69.30
40636;DHT22;26642;55.766;37.828;2023-08-06T03:33:36;27.50;69.30
40636;DHT22;26642;55.766;37.828;2023-08-06T03:36:04;27.50;69.30
40636;DHT22;26642;55.766;37.828;2023-08-06T03:38:32;27.50;69.30
40636;DHT22;26642;55.766;37.828;2023-08-06T03:40:59;27.50;69.50
40636;DHT22;26642;55.766;37.828;2023-08-06T03:43:25;27.40;69.40
40636;DHT22;26642;55.766;37.828;2023-08-06T03:45:51;27.40;69.50
40636;DHT22;26642;55.766;37.828;2023-08-06T03:48:18;27.40;69.60
40636;DHT22;26642;55.766;37.828;2023-08-06T03:50:44;27.50;70.00
40636;DHT22;26642;55.766;37.828;2023-08-06T03:53:13;27.50;69.70
40636;DHT22;26642;55.766;37.828;2023-08-06T03:55:39;27.50;70.10
40636;DHT22;26642;55.766;37.828;2023-08-06T03:58:05;27.50;70.20
40636;DHT22;26642;55.766;37.828;2023-08-06T04:00:31;27.50;70.00
40636;DHT22;26642;55.766;37.828;2023-08-06T04:02:57;27.50;69.60
40636;DHT22;26642;55.766;37.828;2023-08-06T04:05:23;27.50;69.70
40636;DHT22;26642;55.766;37.828;2023-08-06T04:07:49;27.60;69.60
40636;DHT22;26642;55.766;37.828;2023-08-06T04:10:15;27.60;69.50
40636;DHT22;26642;55.766;37.828;2023-08-06T04:12:41;27.70;69.40
40636;DHT22;26642;55.766;37.828;2023-08-06T04:15:07;27.80;69.20
40636;DHT22;26642;55.766;37.828;2023-08-06T04:17:33;27.90;69.10
40636;DHT22;26642;55.766;37.828;2023-08-06T04:19:59;27.90;68.90
40636;DHT22;26642;55.766;37.828;2023-08-06T04:22:25;28.00;68.80
40636;DHT22;26642;55.766;37.828;2023-08-06T04:24:51;28.00;68.70
40636;DHT22;26642;55.766;37.828;2023-08-06T04:27:18;28.10;68.60
40636;DHT22;26642;55.766;37.828;2023-08-06T04:29:46;28.10;68.50
40636;DHT22;26642;55.766;37.828;2023-08-06T04:32:13;28.20;68.40
40636;DHT22;26642;55.766;37.828;2023-08-06T04:34:44;28.30;68.40
40636;DHT22;26642;55.766;37.828;2023-08-06T04:37:10;28.30;68.30
40636;DHT22;26642;55.766;37.828;2023-08-06T04:39:37;28.40;68.20
40636;DHT22;26642;55.766;37.828;2023-08-06T04:42:03;28.40;68.00
40636;DHT22;26642;55.766;37.828;2023-08-06T04:44:29;28.50;67.90
40636;DHT22;26642;55.766;37.828;2023-08-06T04:46:55;28.50;67.80
40636;DHT22;26642;55.766;37.828;2023-08-06T04:49:21;28.60;67.90
40636;DHT22;26642;55.766;37.828;2023-08-06T04:51:47;28.70;67.80
40636;DHT22;26642;55.766;37.828;2023-08-06T04:54:13;28.70;67.70
40636;DHT22;26642;55.766;37.828;2023-08-06T04:56:39;28.80;67.70
40636;DHT22;26642;55.766;37.828;2023-08-06T04:59:05;28.80;67.60
40636;DHT22;26642;55.766;37.828;2023-08-06T05:01:31;28.90;67.60
40636;DHT22;26642;55.766;37.828;2023-08-06T05:03:57;28.90;67.30
40636;DHT22;26642;55.766;37.828;2023-08-06T05:06:23;29.00;67.30
40636;DHT22;26642;55.766;37.828;2023-08-06T05:08:49;29.10;67.10
40636;DHT22;26642;55.766;37.828;2023-08-06T05:11:15;29.20;67.00
40636;DHT22;26642;55.766;37.828;2023-08-06T05:13:41;29.30;67.00
40636;DHT22;26642;55.766;37.828;2023-08-06T05:16:07;29.40;66.80
40636;DHT22;26642;55.766;37.828;2023-08-06T05:18:33;29.40;66.60
40636;DHT22;26642;55.766;37.828;2023-08-06T05:21:00;29.50;66.50
40636;DHT22;26642;55.766;37.828;2023-08-06T05:23:26;29.60;66.10
40636;DHT22;26642;55.766;37.828;2023-08-06T05:25:52;29.60;66.00
40636;DHT22;26642;55.766;37.828;2023-08-06T05:28:17;29.60;65.80
40636;DHT22;26642;55.766;37.828;2023-08-06T05:30:43;29.60;65.80
40636;DHT22;26642;55.766;37.828;2023-08-06T05:33:09;29.80;66.30
40636;DHT22;26642;55.766;37.828;2023-08-06T05:35:35;29.80;65.50
40636;DHT22;26642;55.766;37.828;2023-08-06T05:38:01;29.80;65.50
40636;DHT22;26642;55.766;37.828;2023-08-06T05:40:27;29.80;65.60
40636;DHT22;26642;55.766;37.828;2023-08-06T05:42:54;29.90;65.60
40636;DHT22;26642;55.766;37.828;2023-08-06T05:45:20;30.00;65.20
40636;DHT22;26642;55.766;37.828;2023-08-06T05:47:48;30.00;65.20
40636;DHT22;26642;55.766;37.828;2023-08-06T05:50:14;30.00;65.10
40636;DHT22;26642;55.766;37.828;2023-08-06T05:52:40;30.10;65.30
40636;DHT22;26642;55.766;37.828;2023-08-06T05:55:06;30.10;65.20
40636;DHT22;26642;55.766;37.828;2023-08-06T05:57:32;30.20;65.00
40636;DHT22;26642;55.766;37.828;2023-08-06T05:59:58;30.30;64.60
40636;DHT22;26642;55.766;37.828;2023-08-06T06:02:24;30.40;64.20
40636;DHT22;26642;55.766;37.828;2023-08-06T06:04:50;30.40;64.00
40636;DHT22;26642;55.766;37.828;2023-08-06T06:07:16;30.50;63.80
40636;DHT22;26642;55.766;37.828;2023-08-06T06:09:42;30.50;63.90
40636;DHT22;26642;55.766;37.828;2023-08-06T06:12:08;30.50;64.00
40636;DHT22;26642;55.766;37.828;2023-08-06T06:14:34;30.60;63.70
40636;DHT22;26642;55.766;37.828;2023-08-06T06:17:00;30.70;63.60
40636;DHT22;26642;55.766;37.828;2023-08-06T06:19:26;30.80;63.10
40636;DHT22;26642;55.766;37.828;2023-08-06T06:21:53;30.90;62.70
40636;DHT22;26642;55.766;37.828;2023-08-06T06:24:19;30.90;62.80
40636;DHT22;26642;55.766;37.828;2023-08-06T06:26:45;31.00;62.40
40636;DHT22;26642;55.766;37.828;2023-08-06T06:29:11;31.00;62.50
40636;DHT22;26642;55.766;37.828;2023-08-06T06:31:36;30.90;62.60
40636;DHT22;26642;55.766;37.828;2023-08-06T06:34:02;30.90;62.80
40636;DHT22;26642;55.766;37.828;2023-08-06T06:36:28;30.80;63.00
40636;DHT22;26642;55.766;37.828;2023-08-06T06:38:54;30.80;63.30
40636;DHT22;26642;55.766;37.828;2023-08-06T06:41:20;30.80;63.40
40636;DHT22;26642;55.766;37.828;2023-08-06T06:43:46;30.70;63.40
40636;DHT22;26642;55.766;37.828;2023-08-06T06:46:12;30.80;63.40
40636;DHT22;26642;55.766;37.828;2023-08-06T06:48:38;30.70;63.50
40636;DHT22;26642;55.766;37.828;2023-08-06T06:51:04;30.60;63.60
40636;DHT22;26642;55.766;37.828;2023-08-06T06:53:30;30.60;63.80
40636;DHT22;26642;55.766;37.828;2023-08-06T06:56:01;30.50;63.90
40636;DHT22;26642;55.766;37.828;2023-08-06T06:58:27;30.70;63.00
40636;DHT22;26642;55.766;37.828;2023-08-06T07:00:53;30.70;63.30
40636;DHT22;26642;55.766;37.828;2023-08-06T07:03:22;30.70;63.20
40636;DHT22;26642;55.766;37.828;2023-08-06T07:05:49;30.60;63.40
40636;DHT22;26642;55.766;37.828;2023-08-06T07:08:15;30.60;63.50
40636;DHT22;26642;55.766;37.828;2023-08-06T07:10:42;30.60;63.50
40636;DHT22;26642;55.766;37.828;2023-08-06T07:13:09;30.60;63.60
40636;DHT22;26642;55.766;37.828;2023-08-06T07:15:35;30.70;62.60
40636;DHT22;26642;55.766;37.828;2023-08-06T07:18:01;30.70;63.00
40636;DHT22;26642;55.766;37.828;2023-08-06T07:20:27;30.60;62.90
40636;DHT22;26642;55.766;37.828;2023-08-06T07:22:58;30.60;63.10
40636;DHT22;26642;55.766;37.828;2023-08-06T07:25:24;30.60;63.10
40636;DHT22;26642;55.766;37.828;2023-08-06T07:27:50;30.60;63.10
40636;DHT22;26642;55.766;37.828;2023-08-06T07:30:16;30.70;62.80
40636;DHT22;26642;55.766;37.828;2023-08-06T07:32:43;30.70;62.80
40636;DHT22;26642;55.766;37.828;2023-08-06T07:35:09;30.70;62.90
40636;DHT22;26642;55.766;37.828;2023-08-06T07:37:38;30.70;62.60
40636;DHT22;26642;55.766;37.828;2023-08-06T07:40:05;30.70;62.50
40636;DHT22;26642;55.766;37.828;2023-08-06T07:42:31;30.60;63.30
40636;DHT22;26642;55.766;37.828;2023-08-06T07:44:58;30.60;62.70
40636;DHT22;26642;55.766;37.828;2023-08-06T07:47:25;30.50;62.70
40636;DHT22;26642;55.766;37.828;2023-08-06T07:49:51;30.60;62.70
40636;DHT22;26642;55.766;37.828;2023-08-06T07:52:17;30.60;62.70
40636;DHT22;26642;55.766;37.828;2023-08-06T07:54:42;30.60;62.80
40636;DHT22;26642;55.766;37.828;2023-08-06T07:57:08;30.60;62.70
40636;DHT22;26642;55.766;37.828;2023-08-06T07:59:34;30.50;62.80
40636;DHT22;26642;55.766;37.828;2023-08-06T08:02:00;30.50;62.90
40636;DHT22;26642;55.766;37.828;2023-08-06T08:04:27;30.50;62.90
40636;DHT22;26642;55.766;37.828;2023-08-06T08:06:53;30.50;62.70
40636;DHT22;26642;55.766;37.828;2023-08-06T08:09:18;30.50;62.50
40636;DHT22;26642;55.766;37.828;2023-08-06T08:11:45;30.50;62.20
40636;DHT22;26642;55.766;37.828;2023-08-06T08:14:11;30.50;62.30
40636;DHT22;26642;55.766;37.828;2023-08-06T08:16:37;30.50;62.40
40636;DHT22;26642;55.766;37.828;2023-08-06T08:19:03;30.40;62.30
40636;DHT22;26642;55.766;37.828;2023-08-06T08:21:29;30.50;62.30
40636;DHT22;26642;55.766;37.828;2023-08-06T08:23:55;30.40;62.50
40636;DHT22;26642;55.766;37.828;2023-08-06T08:26:21;30.40;62.30
40636;DHT22;26642;55.766;37.828;2023-08-06T08:28:48;30.40;62.20
40636;DHT22;26642;55.766;37.828;2023-08-06T08:31:13;30.40;62.20
40636;DHT22;26642;55.766;37.828;2023-08-06T08:33:40;30.30;62.10
40636;DHT22;26642;55.766;37.828;2023-08-06T08:36:06;30.40;62.30
40636;DHT22;26642;55.766;37.828;2023-08-06T08:38:32;30.30;62.20
40636;DHT22;26642;55.766;37.828;2023-08-06T08:40:58;30.30;62.20
40636;DHT22;26642;55.766;37.828;2023-08-06T08:43:24;30.30;62.10
40636;DHT22;26642;55.766;37.828;2023-08-06T08:45:51;30.30;62.00
40636;DHT22;26642;55.766;37.828;2023-08-06T08:48:18;30.30;62.00
40636;DHT22;26642;55.766;37.828;2023-08-06T08:50:45;30.40;61.80
40636;DHT22;26642;55.766;37.828;2023-08-06T08:53:14;30.30;61.90
40636;DHT22;26642;55.766;37.828;2023-08-06T08:55:43;30.30;62.00
40636;DHT22;26642;55.766;37.828;2023-08-06T08:58:10;30.30;62.10
40636;DHT22;26642;55.766;37.828;2023-08-06T09:00:36;30.30;62.00
40636;DHT22;26642;55.766;37.828;2023-08-06T09:03:05;30.30;62.10
40636;DHT22;26642;55.766;37.828;2023-08-06T09:05:32;30.30;62.20
40636;DHT22;26642;55.766;37.828;2023-08-06T09:08:05;30.30;62.20
40636;DHT22;26642;55.766;37.828;2023-08-06T09:10:31;30.30;62.30
40636;DHT22;26642;55.766;37.828;2023-08-06T09:12:57;30.30;62.50
40636;DHT22;26642;55.766;37.828;2023-08-06T09:15:27;30.20;62.60
40636;DHT22;26642;55.766;37.828;2023-08-06T09:17:54;30.30;62.80
40636;DHT22;26642;55.766;37.828;2023-08-06T09:20:20;30.20;62.90
40636;DHT22;26642;55.766;37.828;2023-08-06T09:22:46;30.20;63.00
40636;DHT22;26642;55.766;37.828;2023-08-06T09:25:24;30.20;63.10
40636;DHT22;26642;55.766;37.828;2023-08-06T09:27:51;30.20;63.20
40636;DHT22;26642;55.766;37.828;2023-08-06T09:30:31;30.20;63.20
40636;DHT22;26642;55.766;37.828;2023-08-06T09:32:58;30.20;63.30
40636;DHT22;26642;55.766;37.828;2023-08-06T09:35:24;30.20;63.40
40636;DHT22;26642;55.766;37.828;2023-08-06T09:37:50;30.30;63.50
40636;DHT22;26642;55.766;37.828;2023-08-06T09:40:29;30.20;63.50
40636;DHT22;26642;55.766;37.828;2023-08-06T09:42:57;30.30;63.60
40636;DHT22;26642;55.766;37.828;2023-08-06T09:45:35;30.20;63.60
40636;DHT22;26642;55.766;37.828;2023-08-06T09:48:06;30.20;63.80
40636;DHT22;26642;55.766;37.828;2023-08-06T09:50:34;30.20;63.80
40636;DHT22;26642;55.766;37.828;2023-08-06T09:53:03;30.20;63.90
40636;DHT22;26642;55.766;37.828;2023-08-06T09:55:29;30.20;64.00
40636;DHT22;26642;55.766;37.828;2023-08-06T09:57:55;30.20;64.10
40636;DHT22;26642;55.766;37.828;2023-08-06T10:00:22;30.20;64.10
40636;DHT22;26642;55.766;37.828;2023-08-06T10:02:49;30.20;64.20
40636;DHT22;26642;55.766;37.828;2023-08-06T10:05:17;30.20;64.30
40636;DHT22;26642;55.766;37.828;2023-08-06T10:07:44;30.20;64.40
40636;DHT22;26642;55.766;37.828;2023-08-06T10:10:11;30.20;64.40
40636;DHT22;26642;55.766;37.828;2023-08-06T10:12:40;30.20;64.50
40636;DHT22;26642;55.766;37.828;2023-08-06T10:15:11;30.20;64.60
40636;DHT22;26642;55.766;37.828;2023-08-06T10:17:38;30.20;64.70
40636;DHT22;26642;55.766;37.828;2023-08-06T10:20:09;30.10;64.80
40636;DHT22;26642;55.766;37.828;2023-08-06T10:22:35;30.10;64.90
40636;DHT22;26642;55.766;37.828;2023-08-06T10:25:02;30.10;65.00
40636;DHT22;26642;55.766;37.828;2023-08-06T10:32:53;30.10;65.20
40636;DHT22;26642;55.766;37.828;2023-08-06T10:35:34;30.10;65.30
40636;DHT22;26642;55.766;37.828;2023-08-06T10:38:17;30.10;65.30
40636;DHT22;26642;55.766;37.828;2023-08-06T10:40:50;30.10;65.20
40636;DHT22;26642;55.766;37.828;2023-08-06T10:43:27;30.10;65.20
40636;DHT22;26642;55.766;37.828;2023-08-06T10:45:53;30.10;65.20
40636;DHT22;26642;55.766;37.828;2023-08-06T10:48:30;30.20;65.00
40636;DHT22;26642;55.766;37.828;2023-08-06T10:51:00;30.20;65.10
40636;DHT22;26642;55.766;37.828;2023-08-06T10:53:26;30.10;65.10
40636;DHT22;26642;55.766;37.828;2023-08-06T10:55:52;30.10;65.40
40636;DHT22;26642;55.766;37.828;2023-08-06T10:58:18;30.10;65.40
40636;DHT22;26642;55.766;37.828;2023-08-06T11:00:44;30.10;65.50
40636;DHT22;26642;55.766;37.828;2023-08-06T11:03:11;30.10;65.60
40636;DHT22;26642;55.766;37.828;2023-08-06T11:05:37;30.10;65.40
40636;DHT22;26642;55.766;37.828;2023-08-06T11:08:03;30.10;65.40
40636;DHT22;26642;55.766;37.828;2023-08-06T11:10:29;30.10;65.50
40636;DHT22;26642;55.766;37.828;2023-08-06T11:12:55;30.10;65.60
40636;DHT22;26642;55.766;37.828;2023-08-06T11:15:26;30.00;65.60
40636;DHT22;26642;55.766;37.828;2023-08-06T11:17:52;30.10;65.70
40636;DHT22;26642;55.766;37.828;2023-08-06T11:20:20;30.10;65.70
40636;DHT22;26642;55.766;37.828;2023-08-06T11:22:48;30.00;65.70
40636;DHT22;26642;55.766;37.828;2023-08-06T11:25:14;30.10;65.80
40636;DHT22;26642;55.766;37.828;2023-08-06T11:27:40;30.00;65.80
40636;DHT22;26642;55.766;37.828;2023-08-06T11:30:06;30.00;65.90
40636;DHT22;26642;55.766;37.828;2023-08-06T11:32:32;30.00;65.90
40636;DHT22;26642;55.766;37.828;2023-08-06T11:34:59;30.10;65.90
40636;DHT22;26642;55.766;37.828;2023-08-06T11:37:25;30.10;65.80
40636;DHT22;26642;55.766;37.828;2023-08-06T11:39:51;30.10;65.80
40636;DHT22;26642;55.766;37.828;2023-08-06T11:42:17;30.10;65.60
40636;DHT22;26642;55.766;37.828;2023-08-06T11:44:43;30.10;65.40
40636;DHT22;26642;55.766;37.828;2023-08-06T11:47:14;30.10;65.40
40636;DHT22;26642;55.766;37.828;2023-08-06T11:49:47;30.10;65.40
40636;DHT22;26642;55.766;37.828;2023-08-06T11:54:42;30.10;65.40
40636;DHT22;26642;55.766;37.828;2023-08-06T11:57:08;30.10;65.40
40636;DHT22;26642;55.766;37.828;2023-08-06T11:59:35;30.00;65.30
40636;DHT22;26642;55.766;37.828;2023-08-06T12:02:03;30.00;65.30
40636;DHT22;26642;55.766;37.828;2023-08-06T12:04:32;30.10;65.40
40636;DHT22;26642;55.766;37.828;2023-08-06T12:07:07;30.00;65.40
40636;DHT22;26642;55.766;37.828;2023-08-06T12:09:36;30.00;65.50
40636;DHT22;26642;55.766;37.828;2023-08-06T12:12:02;30.00;65.50
40636;DHT22;26642;55.766;37.828;2023-08-06T12:14:29;30.00;65.40
40636;DHT22;26642;55.766;37.828;2023-08-06T12:16:55;30.00;65.30
40636;DHT22;26642;55.766;37.828;2023-08-06T12:19:21;30.10;64.80
40636;DHT22;26642;55.766;37.828;2023-08-06T12:21:49;30.10;64.70
40636;DHT22;26642;55.766;37.828;2023-08-06T12:24:14;30.10;64.90
40636;DHT22;26642;55.766;37.828;2023-08-06T12:26:40;30.00;64.90
40636;DHT22;26642;55.766;37.828;2023-08-06T12:29:06;30.00;65.00
40636;DHT22;26642;55.766;37.828;2023-08-06T12:31:33;30.00;65.20
40636;DHT22;26642;55.766;37.828;2023-08-06T12:33:58;30.10;65.10
40636;DHT22;26642;55.766;37.828;2023-08-06T12:36:24;30.10;65.20
40636;DHT22;26642;55.766;37.828;2023-08-06T12:38:50;30.10;65.30
40636;DHT22;26642;55.766;37.828;2023-08-06T12:41:17;30.10;65.30
40636;DHT22;26642;55.766;37.828;2023-08-06T12:43:42;30.10;65.10
40636;DHT22;26642;55.766;37.828;2023-08-06T12:46:08;30.00;65.10
40636;DHT22;26642;55.766;37.828;2023-08-06T12:48:35;30.10;65.20
40636;DHT22;26642;55.766;37.828;2023-08-06T12:51:01;30.10;65.20
40636;DHT22;26642;55.766;37.828;2023-08-06T12:53:27;30.10;65.00
40636;DHT22;26642;55.766;37.828;2023-08-06T12:55:53;30.00;65.00
40636;DHT22;26642;55.766;37.828;2023-08-06T12:58:19;30.10;64.70
40636;DHT22;26642;55.766;37.828;2023-08-06T13:00:45;30.00;64.60
40636;DHT22;26642;55.766;37.828;2023-08-06T13:03:11;30.00;64.70
40636;DHT22;26642;55.766;37.828;2023-08-06T13:05:37;30.10;64.60
40636;DHT22;26642;55.766;37.828;2023-08-06T13:08:03;30.00;64.30
40636;DHT22;26642;55.766;37.828;2023-08-06T13:10:29;30.10;64.20
40636;DHT22;26642;55.766;37.828;2023-08-06T13:12:56;30.00;64.10
40636;DHT22;26642;55.766;37.828;2023-08-06T13:15:22;30.10;64.10
40636;DHT22;26642;55.766;37.828;2023-08-06T13:17:48;30.10;64.10
40636;DHT22;26642;55.766;37.828;2023-08-06T13:20:14;30.00;64.20
40636;DHT22;26642;55.766;37.828;2023-08-06T13:22:40;30.00;64.40
40636;DHT22;26642;55.766;37.828;2023-08-06T13:25:06;30.00;64.40
40636;DHT22;26642;55.766;37.828;2023-08-06T13:27:32;30.00;64.60
40636;DHT22;26642;55.766;37.828;2023-08-06T13:29:58;30.00;64.60
40636;DHT22;26642;55.766;37.828;2023-08-06T13:32:24;30.00;64.70
40636;DHT22;26642;55.766;37.828;2023-08-06T13:34:50;30.00;64.90
40636;DHT22;26642;55.766;37.828;2023-08-06T13:37:16;30.00;64.90
40636;DHT22;26642;55.766;37.828;2023-08-06T13:39:42;30.00;64.80
40636;DHT22;26642;55.766;37.828;2023-08-06T13:42:08;30.00;64.70
40636;DHT22;26642;55.766;37.828;2023-08-06T13:44:34;30.00;64.80
40636;DHT22;26642;55.766;37.828;2023-08-06T13:47:01;30.10;64.50
40636;DHT22;26642;55.766;37.828;2023-08-06T13:49:28;30.10;64.20
40636;DHT22;26642;55.766;37.828;2023-08-06T13:51:53;30.10;64.20
40636;DHT22;26642;55.766;37.828;2023-08-06T13:54:19;30.00;64.30
40636;DHT22;26642;55.766;37.828;2023-08-06T13:56:46;30.00;64.40
40636;DHT22;26642;55.766;37.828;2023-08-06T13:59:12;30.10;64.40
40636;DHT22;26642;55.766;37.828;2023-08-06T14:01:39;30.10;64.50
40636;DHT22;26642;55.766;37.828;2023-08-06T14:04:06;30.10;64.60
40636;DHT22;26642;55.766;37.828;2023-08-06T14:06:32;30.00;64.70
40636;DHT22;26642;55.766;37.828;2023-08-06T14:08:57;30.00;64.80
40636;DHT22;26642;55.766;37.828;2023-08-06T14:11:23;30.00;64.80
40636;DHT22;26642;55.766;37.828;2023-08-06T14:13:49;30.00;64.70
40636;DHT22;26642;55.766;37.828;2023-08-06T14:16:15;30.00;64.70
40636;DHT22;26642;55.766;37.828;2023-08-06T14:18:41;30.00;64.90
40636;DHT22;26642;55.766;37.828;2023-08-06T14:21:07;30.00;64.90
40636;DHT22;26642;55.766;37.828;2023-08-06T14:23:34;30.00;65.00
40636;DHT22;26642;55.766;37.828;2023-08-06T14:26:00;30.00;65.00
40636;DHT22;26642;55.766;37.828;2023-08-06T14:28:25;30.10;64.50
40636;DHT22;26642;55.766;37.828;2023-08-06T14:30:51;30.00;64.20
40636;DHT22;26642;55.766;37.828;2023-08-06T14:33:17;30.00;64.30
40636;DHT22;26642;55.766;37.828;2023-08-06T14:35:43;30.00;64.20
40636;DHT22;26642;55.766;37.828;2023-08-06T14:38:10;30.00;64.20
40636;DHT22;26642;55.766;37.828;2023-08-06T14:40:36;30.00;64.30
40636;DHT22;26642;55.766;37.828;2023-08-06T14:43:05;30.00;64.20
40636;DHT22;26642;55.766;37.828;2023-08-06T14:45:31;30.00;64.30
40636;DHT22;26642;55.766;37.828;2023-08-06T14:47:57;30.00;64.40
40636;DHT22;26642;55.766;37.828;2023-08-06T14:50:23;30.00;64.40
40636;DHT22;26642;55.766;37.828;2023-08-06T14:52:49;30.00;64.40
40636;DHT22;26642;55.766;37.828;2023-08-06T14:55:24;30.00;64.60
40636;DHT22;26642;55.766;37.828;2023-08-06T14:57:51;29.90;64.50
40636;DHT22;26642;55.766;37.828;2023-08-06T15:00:17;30.00;64.50
40636;DHT22;26642;55.766;37.828;2023-08-06T15:02:43;30.00;64.60
40636;DHT22;26642;55.766;37.828;2023-08-06T15:05:09;30.00;64.60
40636;DHT22;26642;55.766;37.828;2023-08-06T15:07:35;29.90;64.50
40636;DHT22;26642;55.766;37.828;2023-08-06T15:10:02;30.00;64.60
40636;DHT22;26642;55.766;37.828;2023-08-06T15:12:28;29.90;64.40
40636;DHT22;26642;55.766;37.828;2023-08-06T15:14:54;29.90;64.40
40636;DHT22;26642;55.766;37.828;2023-08-06T15:17:23;29.90;65.10
40636;DHT22;26642;55.766;37.828;2023-08-06T15:19:49;29.90;64.50
40636;DHT22;26642;55.766;37.828;2023-08-06T15:22:15;30.00;64.60
40636;DHT22;26642;55.766;37.828;2023-08-06T15:24:41;29.90;64.50